Weedon, Canada
Current Conditions -  °F | °C
As of 3:33 AM on Sunday 21 Dec 2014 (Local Time) from CYSC Reporting Station
Haze Haze  
Wind Chill: 10°   Ceiling: 200
Heat Index: 10°   Visibility: 2mi
Dew Point:   Wind: 3mph
Humidity: 92%   Direction: 120°ESE
Pressure: 30.31"   Gusts: NA
Location:  45.7°N, 71.45°W
Report Text: CYSC 210833Z AUTO 12003KT 2SM BR OVC002 M12/M13 A3031 RMK SLP283
Loading
Personal Weather Stations






























Interactive Weather Map New forecast layout! Learn more

10-Day Weather Forecast

Advertisements
Track Severe Weather on mobile